Forest Lakes, Arizona
Current Conditions -  °F | °C
As of 2:35 PM on Tuesday 21 Oct 2014 (Local Time) from KSOW Reporting Station
Scattered Clouds Scattered Clouds  
Wind Chill: 64°   Ceiling: Unl
Heat Index: 64°   Visibility: 10mi
Dew Point: 41°   Wind: 12mph
Humidity: 42%   Direction: 210°SSW
Pressure: 30.1"   Gusts: 16mph
Location:  34.43°N, 110.6°W
Report Text: KSOW 212135Z AUTO 21010G14KT 10SM SCT048 18/05 A3010 RMK AO2
Loading
Personal Weather Stations






























Interactive Weather Map
Tropical Storm Tracking
New forecast layout! Learn more

10-Day Weather Forecast

Advertisements
Track Severe Weather on mobile